Kota Taipei, Taiwan

06:26 PM CST on Oktober 31, 2014 (GMT +0800)
ITAIPEIT2 | Change Station
CLOSE
Current Station
Personal Weather Stations
Location: Taipei Da'An, Taiwan
Elevation: 30 ft
Nearby Weather Stations

Elev 30 ft 25.03 °N, 121.53 °E | Updated 1 minute ago

Partly Cloudy
Mendung Sebagian
79.0 °F
Feels Like 81 °F
N
5.0
Angin Variable Angin from Dari Utara ke Timurlaut
Gusts 14.0 mph

Siang Ini
High -- | Low -- °F
--% Chance of Precip.
Yesterday
High -- | Low -- °F
Precip. -- Inch
6:00 AM 5:14 PM
Triwulan Pertama, 54% visible
Tekanan 29.92 Inch
Jarak Pandang 6.2 Mil
Awan Few 2500 ft
Ideks Panas 81 °F
Titik Embun 68 °F
Kelembaban 70%
Rainfall 0.00 Inch
Snow Depth Not available.
UV 0.0 out of 12
Pollen Not available.
Air Quality Not available.
Flu Activity Not available.
METAR RCSS 311000Z 09009KT 9999 FEW025 26/18 Q1013 NOSIG RMK A2992

More Conditions Fewer Conditions

Tekanan 29.92 Inch
Jarak Pandang 6.2 Mil
Awan Few 2500 ft
Ideks Panas 81 °F
Titik Embun 68 °F
Kelembaban 70%
Rainfall 0.00 Inch
Snow Depth Not available.
UV 0.0 out of 12
Pollen Not available.
Air Quality Not available.
Flu Activity Not available.
METAR RCSS 311000Z 09009KT 9999 FEW025 26/18 Q1013 NOSIG RMK A2992

More Conditions Fewer Conditions

10-Day Weather Forecast

Almanac

Astronomi

Oct. 31, 2014 Rise Set
Actual Time
Civil Twilight
Nautical Twilight
Astronomical Twilight
Moon
Length Of Visible Light
Lama Satu Hari
Tomorrow will be .
, % of the Moon is Illuminated

Today's Extremes

Country Highs Country Lows

Community

WunderPhotos

Upload Photos

1,766,580 photos uploaded!

WunderBlogs® & News

Nearby

Air Quality

  Air Quality AQ Index Pollutant
Not available.

Snow Depth

Station Depth Elevation

Earthquake Activity

City Distance Mag. Time & Date
Minimum magnitude displayed is 2.5.

Coastal Water Temperatures

Lokasi Temperatur

Nearby Weather Stations